createdAt,value
2023-04-21T00:00:00.000Z,81.95
2023-04-21T00:15:00.000Z,82.48
2023-04-21T00:30:00.000Z,83.11
2023-04-21T00:45:00.000Z,83.68
2023-04-21T01:00:00.000Z,83.86
2023-04-21T01:15:00.000Z,83.97
2023-04-21T01:30:00.000Z,84.2
2023-04-21T01:45:00.000Z,84.45
2023-04-21T02:00:00.000Z,84.74
2023-04-21T02:15:00.000Z,84.7
2023-04-21T02:30:00.000Z,84.67
2023-04-21T02:45:00.000Z,84.92
2023-04-21T03:00:00.000Z,84.97
2023-04-21T03:15:00.000Z,85.31
2023-04-21T03:30:00.000Z,84.88
2023-04-21T03:45:00.000Z,84.4
2023-04-21T04:00:00.000Z,83.6
2023-04-21T04:15:00.000Z,83.51
2023-04-21T04:30:00.000Z,83.5
2023-04-21T04:45:00.000Z,83.3
2023-04-21T05:00:00.000Z,83.12
2023-04-21T05:15:00.000Z,82.31
2023-04-21T05:30:00.000Z,80.95
2023-04-21T05:45:00.000Z,79.58
2023-04-21T06:00:00.000Z,77.85
2023-04-21T06:15:00.000Z,76.73
2023-04-21T06:30:00.000Z,75.41
2023-04-21T06:45:00.000Z,73.52
2023-04-21T07:00:00.000Z,70.96
2023-04-21T07:15:00.000Z,69.34
2023-04-21T07:30:00.000Z,70.62
2023-04-21T07:45:00.000Z,68.69
2023-04-21T08:00:00.000Z,63.83
2023-04-21T08:15:00.000Z,51.14
2023-04-21T08:30:00.000Z,47.35
2023-04-21T08:45:00.000Z,45.76
2023-04-21T09:00:00.000Z,45.47
2023-04-21T09:15:00.000Z,44.52
2023-04-21T09:45:00.000Z,44.3
2023-04-21T10:00:00.000Z,44.78
2023-04-21T10:15:00.000Z,46.39
2023-04-21T10:30:00.000Z,46.62
2023-04-21T10:45:00.000Z,46.92
2023-04-21T11:00:00.000Z,47.5
2023-04-21T11:15:00.000Z,46.46
2023-04-21T11:30:00.000Z,46.7
2023-04-21T11:45:00.000Z,45.8
2023-04-21T12:00:00.000Z,44.75
2023-04-21T12:15:00.000Z,43.42
2023-04-21T12:30:00.000Z,42.33
2023-04-21T12:45:00.000Z,41.44
2023-04-21T13:00:00.000Z,41.95
2023-04-21T13:15:00.000Z,42.44
2023-04-21T13:30:00.000Z,42.79
2023-04-21T13:45:00.000Z,44.74
2023-04-21T14:00:00.000Z,47.44
2023-04-21T14:15:00.000Z,48.73
2023-04-21T14:30:00.000Z,48.42
2023-04-21T14:45:00.000Z,48.21
2023-04-21T15:00:00.000Z,48.03
2023-04-21T15:15:00.000Z,40.66
2023-04-21T15:30:00.000Z,39.72
2023-04-21T15:45:00.000Z,40.46
2023-04-21T16:00:00.000Z,41.18
2023-04-21T16:15:00.000Z,43.54
2023-04-21T16:30:00.000Z,45.72
2023-04-21T16:45:00.000Z,48.1
2023-04-21T17:00:00.000Z,49.11
2023-04-21T17:15:00.000Z,50.31
2023-04-21T17:30:00.000Z,50.55
2023-04-21T17:45:00.000Z,53.32
2023-04-21T18:00:00.000Z,56.67
2023-04-21T18:15:00.000Z,59.79
2023-04-21T18:30:00.000Z,62
2023-04-21T18:45:00.000Z,67.76
2023-04-21T19:00:00.000Z,69.5
2023-04-21T19:15:00.000Z,69.45
2023-04-21T19:30:00.000Z,69.2
2023-04-21T19:45:00.000Z,71.33
2023-04-21T20:00:00.000Z,70.45
2023-04-21T20:15:00.000Z,68.09
2023-04-21T20:30:00.000Z,67.62
2023-04-21T20:45:00.000Z,68.46
2023-04-21T21:00:00.000Z,70.63
2023-04-21T21:15:00.000Z,71.39
2023-04-21T21:30:00.000Z,70.89
2023-04-21T21:45:00.000Z,72.66
2023-04-21T22:00:00.000Z,74.04
2023-04-21T22:15:00.000Z,73.86
2023-04-21T22:30:00.000Z,71.91
2023-04-21T22:45:00.000Z,72.75
2023-04-21T23:00:00.000Z,73.69
2023-04-21T23:15:00.000Z,73.44
2023-04-21T23:30:00.000Z,71.91
2023-04-21T23:45:00.000Z,73.97
